createdAt,value
2023-05-23T00:00:20.158Z,6.13
2023-05-23T00:02:47.487Z,5.68
2023-05-23T00:05:15.671Z,7.30
2023-05-23T00:07:43.178Z,7.57
2023-05-23T00:10:10.569Z,7.57
2023-05-23T00:12:42.826Z,7.53
2023-05-23T00:15:10.202Z,7.25
2023-05-23T00:17:38.435Z,8.77
2023-05-23T00:20:09.758Z,6.97
2023-05-23T00:22:40.118Z,5.72
2023-05-23T00:25:08.112Z,5.63
2023-05-23T00:27:35.197Z,5.60
2023-05-23T00:30:02.722Z,5.55
2023-05-23T00:32:29.721Z,5.30
2023-05-23T00:34:56.702Z,5.38
2023-05-23T00:37:23.824Z,6.13
2023-05-23T00:39:50.969Z,6.03
2023-05-23T00:42:18.027Z,6.53
2023-05-23T00:44:45.248Z,6.65
2023-05-23T00:47:14.182Z,6.95
2023-05-23T00:49:41.684Z,6.55
2023-05-23T00:52:09.141Z,7.55
2023-05-23T00:54:37.030Z,8.25
2023-05-23T00:57:04.419Z,12.05
2023-05-23T00:59:32.490Z,8.32
2023-05-23T01:02:01.113Z,11.18
2023-05-23T01:04:28.617Z,9.05
2023-05-23T01:06:56.658Z,7.30
2023-05-23T01:09:25.162Z,6.32
2023-05-23T01:12:15.895Z,6.40
2023-05-23T01:14:59.776Z,6.70
2023-05-23T01:17:55.541Z,7.43
2023-05-23T01:20:28.325Z,6.78
2023-05-23T01:23:01.216Z,7.20
2023-05-23T01:26:07.238Z,9.55
2023-05-23T01:28:40.803Z,8.63
2023-05-23T01:31:11.249Z,7.32
2023-05-23T01:33:41.419Z,7.95
2023-05-23T01:36:09.499Z,6.80
2023-05-23T01:38:36.493Z,6.28
2023-05-23T01:41:03.802Z,5.57
2023-05-23T01:43:31.689Z,5.45
2023-05-23T01:46:01.152Z,5.63
2023-05-23T01:48:29.298Z,5.55
2023-05-23T01:50:58.742Z,5.45
2023-05-23T01:53:27.546Z,5.47
2023-05-23T01:55:55.057Z,5.60
2023-05-23T01:58:22.633Z,5.40
2023-05-23T02:00:50.137Z,6.20
2023-05-23T02:03:17.342Z,5.57
2023-05-23T02:05:44.779Z,6.68
2023-05-23T02:08:11.967Z,5.57
2023-05-23T02:10:39.097Z,5.53
2023-05-23T02:13:05.961Z,6.00
2023-05-23T02:15:32.879Z,5.18
2023-05-23T02:17:59.818Z,5.60
2023-05-23T02:20:26.908Z,5.95
2023-05-23T02:22:54.049Z,5.82
2023-05-23T02:25:20.889Z,6.13
2023-05-23T02:27:48.067Z,6.03
2023-05-23T02:30:15.470Z,6.05
2023-05-23T02:32:42.857Z,6.18
2023-05-23T02:35:11.227Z,6.05
2023-05-23T02:37:38.478Z,5.35
2023-05-23T02:40:08.020Z,5.90
2023-05-23T02:42:36.590Z,5.55
2023-05-23T02:45:03.956Z,6.07
2023-05-23T02:47:31.401Z,5.47
2023-05-23T02:49:58.592Z,6.20
2023-05-23T02:52:26.038Z,5.63
2023-05-23T02:54:53.497Z,5.50
2023-05-23T02:57:20.742Z,5.50
2023-05-23T02:59:47.899Z,6.30
2023-05-23T03:02:15.305Z,5.82
2023-05-23T03:04:42.288Z,5.95
2023-05-23T03:07:20.392Z,5.68
2023-05-23T03:09:54.728Z,5.97
2023-05-23T03:12:22.580Z,5.55
2023-05-23T03:14:49.622Z,5.75
2023-05-23T03:17:16.933Z,5.80
2023-05-23T03:19:43.769Z,6.07
2023-05-23T03:22:11.003Z,6.03
2023-05-23T03:24:38.213Z,5.30
2023-05-23T03:27:05.980Z,5.88
2023-05-23T03:29:33.132Z,6.40
2023-05-23T03:32:00.302Z,5.65
2023-05-23T03:34:27.917Z,5.55
2023-05-23T03:36:54.957Z,7.15
2023-05-23T03:39:23.087Z,6.25
2023-05-23T03:41:50.052Z,5.93
2023-05-23T03:44:17.266Z,6.32
2023-05-23T03:46:44.748Z,6.47
2023-05-23T03:49:12.562Z,5.93
2023-05-23T03:51:39.697Z,6.10
2023-05-23T03:54:07.007Z,7.43
2023-05-23T03:56:33.961Z,9.68
2023-05-23T03:59:01.676Z,10.55
2023-05-23T04:01:28.899Z,9.55
2023-05-23T04:03:56.437Z,12.00
2023-05-23T04:06:26.631Z,10.63
2023-05-23T04:08:53.899Z,7.60
2023-05-23T04:11:22.531Z,6.22
2023-05-23T04:13:52.261Z,32.28
2023-05-23T04:16:19.640Z,22.77
2023-05-23T04:18:48.465Z,31.48
2023-05-23T04:21:15.741Z,12.15
2023-05-23T04:23:58.729Z,14.55
2023-05-23T04:26:25.862Z,44.38
2023-05-23T04:28:54.725Z,44.55
2023-05-23T04:31:24.798Z,33.67
2023-05-23T04:33:52.647Z,28.35
2023-05-23T04:36:20.622Z,12.38
2023-05-23T04:38:52.715Z,14.10
2023-05-23T04:41:23.667Z,5.63
2023-05-23T04:44:10.434Z,5.25
2023-05-23T04:46:46.251Z,6.18
2023-05-23T04:49:17.658Z,5.85
2023-05-23T04:51:44.955Z,9.73
2023-05-23T04:54:27.343Z,10.93
2023-05-23T04:56:55.396Z,9.85
2023-05-23T04:59:24.400Z,8.90
2023-05-23T05:01:51.364Z,7.88
2023-05-23T05:04:19.882Z,7.50
2023-05-23T05:06:48.747Z,8.07
2023-05-23T05:09:16.201Z,8.25
2023-05-23T05:11:44.077Z,7.50
2023-05-23T05:14:11.128Z,7.95
2023-05-23T05:16:38.369Z,7.28
2023-05-23T05:19:06.693Z,7.03
2023-05-23T05:21:33.894Z,7.07
2023-05-23T05:24:01.763Z,6.57
2023-05-23T05:26:28.841Z,7.22
2023-05-23T05:28:57.289Z,6.65
2023-05-23T05:31:24.536Z,6.43
2023-05-23T05:33:51.551Z,6.05
2023-05-23T05:36:20.086Z,5.22
2023-05-23T05:38:47.897Z,5.88
2023-05-23T05:41:16.945Z,5.80
2023-05-23T05:43:49.798Z,4.90
2023-05-23T05:46:16.932Z,5.40
2023-05-23T05:48:44.612Z,5.20
2023-05-23T05:51:13.609Z,4.82
2023-05-23T05:53:42.003Z,4.55
2023-05-23T05:56:09.468Z,4.43
2023-05-23T05:58:38.630Z,4.97
2023-05-23T06:01:08.386Z,5.22
2023-05-23T06:03:35.882Z,5.20
2023-05-23T06:06:03.503Z,5.05
2023-05-23T06:08:30.661Z,5.18
2023-05-23T06:10:57.737Z,5.10
2023-05-23T06:13:26.368Z,5.32
2023-05-23T06:15:54.472Z,4.93
2023-05-23T06:18:22.374Z,5.50
2023-05-23T06:20:51.433Z,5.45
2023-05-23T06:23:20.665Z,5.10
2023-05-23T06:25:48.202Z,5.45
2023-05-23T06:28:15.374Z,6.13
2023-05-23T06:30:42.888Z,5.25
2023-05-23T06:33:10.305Z,4.93
2023-05-23T06:35:37.478Z,6.18
2023-05-23T06:38:04.350Z,5.82
2023-05-23T06:40:31.880Z,5.93
2023-05-23T06:42:59.189Z,6.10
2023-05-23T06:46:01.473Z,5.75
2023-05-23T06:48:29.076Z,5.30
2023-05-23T06:50:56.176Z,6.40
2023-05-23T06:53:23.770Z,5.75
2023-05-23T06:55:51.479Z,5.18
2023-05-23T06:58:25.270Z,5.93
2023-05-23T07:00:55.168Z,6.40
2023-05-23T07:03:31.791Z,6.78
2023-05-23T07:06:03.403Z,6.20
2023-05-23T07:08:31.171Z,7.15
2023-05-23T07:11:00.212Z,6.40
2023-05-23T07:13:43.150Z,6.90
2023-05-23T07:16:17.340Z,6.65
2023-05-23T07:19:05.822Z,5.95
2023-05-23T07:21:36.809Z,5.75
2023-05-23T07:24:04.544Z,5.13
2023-05-23T07:26:32.250Z,4.93
2023-05-23T07:28:59.984Z,6.05
2023-05-23T07:31:27.457Z,4.40
2023-05-23T07:33:58.114Z,4.55
2023-05-23T07:36:34.223Z,5.18
2023-05-23T07:39:04.498Z,5.13
2023-05-23T07:41:31.604Z,6.95
2023-05-23T07:43:58.884Z,8.30
2023-05-23T07:46:26.171Z,5.07
2023-05-23T07:48:53.519Z,5.53
2023-05-23T07:51:21.592Z,5.07
2023-05-23T07:53:50.644Z,5.25
2023-05-23T07:56:19.502Z,8.55
2023-05-23T07:58:46.589Z,7.30
2023-05-23T08:01:13.787Z,4.63
2023-05-23T08:04:02.157Z,6.30
2023-05-23T08:06:35.539Z,7.65
2023-05-23T08:09:06.989Z,6.07
2023-05-23T08:11:38.571Z,5.45
2023-05-23T08:14:07.019Z,5.55
2023-05-23T08:16:38.045Z,5.53
2023-05-23T08:19:16.089Z,5.82
2023-05-23T08:21:44.135Z,3.50
2023-05-23T08:24:14.952Z,2.75
2023-05-23T08:26:42.998Z,2.92
2023-05-23T08:29:12.363Z,2.45
2023-05-23T08:31:40.771Z,2.80
2023-05-23T08:34:09.054Z,4.07
2023-05-23T08:36:40.392Z,3.38
2023-05-23T08:39:11.737Z,3.15
2023-05-23T08:41:55.786Z,2.75
2023-05-23T08:44:22.948Z,3.00
2023-05-23T08:46:55.553Z,2.75
2023-05-23T08:49:41.233Z,2.83
2023-05-23T08:52:13.029Z,2.60
2023-05-23T08:54:44.337Z,3.00
2023-05-23T08:57:13.768Z,3.33
2023-05-23T08:59:47.348Z,2.92
2023-05-23T09:02:16.655Z,2.55
2023-05-23T09:04:46.752Z,3.70
2023-05-23T09:07:19.941Z,3.08
2023-05-23T09:09:51.054Z,3.25
2023-05-23T09:12:18.738Z,2.80
2023-05-23T09:14:48.702Z,2.90
2023-05-23T09:17:19.626Z,2.70
2023-05-23T09:19:47.621Z,2.50
2023-05-23T09:22:27.119Z,2.30
2023-05-23T09:25:03.813Z,2.58
2023-05-23T09:27:31.829Z,2.28
2023-05-23T09:30:04.969Z,2.17
2023-05-23T09:32:32.306Z,2.30
2023-05-23T09:35:00.966Z,2.20
2023-05-23T09:37:41.037Z,2.08
2023-05-23T09:40:10.589Z,1.90
2023-05-23T09:42:47.599Z,2.80
2023-05-23T09:45:16.609Z,2.50
2023-05-23T09:47:53.693Z,2.20
2023-05-23T09:50:21.979Z,2.33
2023-05-23T09:52:51.445Z,2.17
2023-05-23T09:55:19.205Z,2.20
2023-05-23T09:57:53.709Z,2.50
2023-05-23T10:00:20.877Z,2.40
2023-05-23T10:03:10.969Z,2.58
2023-05-23T10:05:47.836Z,2.10
2023-05-23T10:08:27.662Z,2.55
2023-05-23T10:10:57.784Z,2.30
2023-05-23T10:13:29.527Z,2.58
2023-05-23T10:16:27.330Z,2.72
2023-05-23T10:19:03.438Z,2.05
2023-05-23T10:21:36.309Z,2.42
2023-05-23T10:24:07.524Z,1.92
2023-05-23T10:29:02.368Z,2.40
2023-05-23T10:31:30.322Z,2.42
2023-05-23T10:34:05.151Z,2.50
2023-05-23T10:36:38.380Z,2.40
2023-05-23T10:39:11.872Z,2.30
2023-05-23T10:41:52.194Z,2.80
2023-05-23T10:44:29.041Z,2.60
2023-05-23T10:47:01.511Z,2.50
2023-05-23T10:49:39.280Z,2.05
2023-05-23T10:52:07.480Z,2.22
2023-05-23T10:54:36.250Z,2.40
2023-05-23T10:57:05.095Z,2.38
2023-05-23T10:59:32.388Z,2.40
2023-05-23T11:02:01.148Z,2.15
2023-05-23T11:04:29.665Z,2.63
2023-05-23T11:06:57.982Z,2.58
2023-05-23T11:09:24.930Z,2.53
2023-05-23T11:11:54.966Z,2.42
2023-05-23T11:14:35.281Z,2.63
2023-05-23T11:17:19.947Z,2.20
2023-05-23T11:20:10.016Z,2.55
2023-05-23T11:22:37.235Z,2.15
2023-05-23T11:25:10.471Z,2.33
2023-05-23T11:27:40.032Z,2.10
2023-05-23T11:30:10.300Z,2.17
2023-05-23T11:32:37.901Z,2.92
2023-05-23T11:35:10.206Z,1.80
2023-05-23T11:37:40.870Z,1.85
2023-05-23T11:40:28.043Z,2.13
2023-05-23T11:42:56.534Z,1.80
2023-05-23T11:45:24.434Z,2.05
2023-05-23T11:47:51.828Z,1.60
2023-05-23T11:50:20.720Z,1.70
2023-05-23T11:52:51.963Z,1.83
2023-05-23T11:55:23.020Z,1.50
2023-05-23T11:57:52.076Z,2.10
2023-05-23T12:00:19.853Z,1.75
2023-05-23T12:02:50.644Z,1.80
2023-05-23T12:05:18.336Z,2.03
2023-05-23T12:07:49.932Z,1.52
2023-05-23T12:10:18.326Z,1.50
2023-05-23T12:12:45.663Z,1.73
2023-05-23T12:15:13.392Z,1.92
2023-05-23T12:17:47.391Z,1.63
2023-05-23T12:20:14.774Z,1.65
2023-05-23T12:22:42.745Z,1.80
2023-05-23T12:25:13.425Z,1.65
2023-05-23T12:27:44.299Z,1.45
2023-05-23T12:30:16.754Z,1.70
2023-05-23T12:32:47.420Z,2.05
2023-05-23T12:35:16.076Z,1.98
2023-05-23T12:37:47.204Z,1.85
2023-05-23T12:40:19.054Z,1.75
2023-05-23T12:42:56.432Z,1.60
2023-05-23T12:45:35.014Z,1.50
2023-05-23T12:48:02.982Z,1.65
2023-05-23T12:50:31.128Z,1.90
2023-05-23T12:52:59.004Z,1.98
2023-05-23T12:55:26.387Z,1.73
2023-05-23T12:57:53.619Z,1.73
2023-05-23T13:00:22.191Z,1.60
2023-05-23T13:02:50.485Z,1.30
2023-05-23T13:05:18.049Z,1.30
2023-05-23T13:07:48.197Z,1.52
2023-05-23T13:10:15.612Z,1.52
2023-05-23T13:12:43.303Z,1.40
2023-05-23T13:15:12.486Z,1.50
2023-05-23T13:17:39.773Z,1.70
2023-05-23T13:20:09.635Z,1.25
2023-05-23T13:22:36.684Z,1.63
2023-05-23T13:25:04.080Z,2.33
2023-05-23T13:27:30.993Z,1.52
2023-05-23T13:29:58.124Z,1.63
2023-05-23T13:32:24.976Z,2.10
2023-05-23T13:34:52.129Z,1.80
2023-05-23T13:37:19.532Z,1.85
2023-05-23T13:39:46.497Z,1.80
2023-05-23T13:42:13.842Z,1.70
2023-05-23T13:44:41.088Z,1.85
2023-05-23T13:47:15.232Z,1.50
2023-05-23T13:49:43.252Z,1.90
2023-05-23T13:52:11.003Z,1.60
2023-05-23T13:54:38.493Z,1.90
2023-05-23T13:57:07.030Z,1.50
2023-05-23T13:59:34.340Z,1.83
2023-05-23T14:02:01.516Z,2.00
2023-05-23T14:04:28.958Z,1.63
2023-05-23T14:06:56.055Z,1.92
2023-05-23T14:09:23.525Z,1.60
2023-05-23T14:11:52.334Z,1.85
2023-05-23T14:14:19.491Z,1.85
2023-05-23T14:16:47.095Z,2.22
2023-05-23T14:19:14.140Z,1.85
2023-05-23T14:21:44.008Z,1.90
2023-05-23T14:24:12.224Z,2.17
2023-05-23T14:26:39.574Z,1.52
2023-05-23T14:29:06.531Z,1.60
2023-05-23T14:31:33.431Z,1.50
2023-05-23T14:34:00.839Z,1.65
2023-05-23T14:36:28.813Z,3.20
2023-05-23T14:38:55.696Z,1.13
2023-05-23T14:41:23.026Z,1.38
2023-05-23T14:43:50.231Z,1.20
2023-05-23T14:46:18.644Z,1.20
2023-05-23T14:48:45.646Z,1.67
2023-05-23T14:51:21.465Z,1.30
2023-05-23T14:53:57.728Z,1.38
2023-05-23T14:56:24.918Z,1.70
2023-05-23T14:58:52.286Z,1.65
2023-05-23T15:01:19.226Z,1.45
2023-05-23T15:03:46.353Z,1.55
2023-05-23T15:06:13.710Z,1.70
2023-05-23T15:08:41.470Z,1.60
2023-05-23T15:11:10.033Z,1.92
2023-05-23T15:13:36.983Z,1.50
2023-05-23T15:16:04.605Z,1.50
2023-05-23T15:18:40.534Z,1.70
2023-05-23T15:21:09.299Z,2.22
2023-05-23T15:23:36.707Z,2.08
2023-05-23T15:26:03.702Z,1.77
2023-05-23T15:28:30.648Z,1.80
2023-05-23T15:30:59.115Z,1.63
2023-05-23T15:33:26.247Z,1.60
2023-05-23T15:35:54.113Z,2.33
2023-05-23T15:38:21.345Z,1.60
2023-05-23T15:40:49.109Z,2.10
2023-05-23T15:43:16.618Z,1.92
2023-05-23T15:45:43.803Z,2.30
2023-05-23T15:48:11.585Z,1.92
2023-05-23T15:50:38.908Z,1.63
2023-05-23T15:53:06.537Z,1.85
2023-05-23T15:55:33.410Z,2.75
2023-05-23T15:58:00.224Z,1.50
2023-05-23T16:00:27.532Z,1.75
2023-05-23T16:02:54.733Z,1.70
2023-05-23T16:05:21.891Z,2.08
2023-05-23T16:07:49.131Z,1.63
2023-05-23T16:10:16.139Z,3.05
2023-05-23T16:12:43.298Z,1.75
2023-05-23T16:15:10.769Z,1.83
2023-05-23T16:17:38.062Z,1.63
2023-05-23T16:20:05.318Z,1.70
2023-05-23T16:22:32.653Z,2.20
2023-05-23T16:24:59.665Z,2.53
2023-05-23T16:27:26.682Z,2.45
2023-05-23T16:29:53.603Z,1.88
2023-05-23T16:32:20.903Z,2.60
2023-05-23T16:34:52.869Z,2.70
2023-05-23T16:37:21.605Z,2.50
2023-05-23T16:39:48.515Z,1.77
2023-05-23T16:42:15.750Z,1.90
2023-05-23T16:44:42.863Z,1.95
2023-05-23T16:47:09.834Z,3.63
2023-05-23T16:49:36.930Z,2.42
2023-05-23T16:52:03.892Z,2.20
2023-05-23T16:54:30.998Z,2.22
2023-05-23T16:57:01.913Z,2.30
2023-05-23T16:59:30.061Z,2.33
2023-05-23T17:01:57.447Z,2.75
2023-05-23T17:04:30.825Z,3.50
2023-05-23T17:06:59.812Z,2.72
2023-05-23T17:09:27.746Z,2.90
2023-05-23T17:11:55.060Z,2.80
2023-05-23T17:14:22.706Z,2.97
2023-05-23T17:16:49.831Z,3.92
2023-05-23T17:19:17.225Z,3.58
2023-05-23T17:21:44.277Z,3.20
2023-05-23T17:24:11.476Z,3.13
2023-05-23T17:26:38.771Z,3.60
2023-05-23T17:29:05.807Z,3.35
2023-05-23T17:31:32.943Z,3.20
2023-05-23T17:33:59.976Z,3.67
2023-05-23T17:36:27.138Z,3.47
2023-05-23T17:38:54.401Z,3.55
2023-05-23T17:41:24.569Z,3.50
2023-05-23T17:44:16.298Z,3.63
2023-05-23T17:46:46.796Z,4.28
2023-05-23T17:49:13.828Z,4.25
2023-05-23T17:51:40.713Z,4.43
2023-05-23T17:54:07.808Z,3.95
2023-05-23T17:56:34.765Z,4.03
2023-05-23T17:59:05.254Z,4.65
2023-05-23T18:01:32.592Z,5.73
2023-05-23T18:04:00.183Z,4.35
2023-05-23T18:06:29.816Z,4.70
2023-05-23T18:08:57.115Z,4.20
2023-05-23T18:11:24.412Z,5.35
2023-05-23T18:13:51.646Z,4.70
2023-05-23T18:16:18.690Z,4.50
2023-05-23T18:18:45.884Z,4.82
2023-05-23T18:21:13.483Z,4.68
2023-05-23T18:24:05.894Z,4.60
2023-05-23T18:26:42.298Z,4.75
2023-05-23T18:29:12.530Z,6.07
2023-05-23T18:31:39.561Z,6.35
2023-05-23T18:34:06.899Z,6.20
2023-05-23T18:36:34.055Z,6.10
2023-05-23T18:39:01.271Z,6.25
2023-05-23T18:41:34.903Z,6.35
2023-05-23T18:44:02.372Z,6.47
2023-05-23T18:46:30.306Z,5.85
2023-05-23T18:49:00.330Z,4.80
2023-05-23T18:51:27.711Z,5.53
2023-05-23T18:53:54.796Z,5.10
2023-05-23T18:56:23.234Z,5.53
2023-05-23T18:58:51.825Z,4.63
2023-05-23T19:01:19.028Z,4.65
2023-05-23T19:03:46.485Z,4.05
2023-05-23T19:06:13.750Z,5.00
2023-05-23T19:08:42.674Z,4.45
2023-05-23T19:11:10.929Z,5.00
2023-05-23T19:13:37.789Z,5.15
2023-05-23T19:16:05.130Z,4.68
2023-05-23T19:18:32.311Z,5.10
2023-05-23T19:20:59.375Z,4.60
2023-05-23T19:23:26.593Z,5.07
2023-05-23T19:25:53.611Z,5.15
2023-05-23T19:28:20.666Z,4.43
2023-05-23T19:30:47.904Z,5.18
2023-05-23T19:33:15.830Z,4.85
2023-05-23T19:35:43.933Z,4.53
2023-05-23T19:38:11.495Z,5.05
2023-05-23T19:40:38.812Z,4.75
2023-05-23T19:43:07.224Z,5.85
2023-05-23T19:45:34.164Z,4.32
2023-05-23T19:48:01.874Z,5.22
2023-05-23T19:50:44.556Z,5.53
2023-05-23T19:53:11.986Z,5.03
2023-05-23T19:55:39.000Z,5.45
2023-05-23T19:58:06.240Z,5.22
2023-05-23T20:00:33.205Z,5.13
2023-05-23T20:03:00.354Z,5.75
2023-05-23T20:05:27.729Z,5.20
2023-05-23T20:07:54.647Z,5.85
2023-05-23T20:10:21.719Z,5.95
2023-05-23T20:12:48.993Z,5.32
2023-05-23T20:15:21.771Z,5.43
2023-05-23T20:17:54.911Z,6.18
2023-05-23T20:20:22.019Z,6.10
2023-05-23T20:22:49.293Z,6.65
2023-05-23T20:25:17.651Z,6.55
2023-05-23T20:27:44.653Z,4.80
2023-05-23T20:30:12.313Z,4.72
2023-05-23T20:32:39.394Z,5.28
2023-05-23T20:35:06.893Z,4.70
2023-05-23T20:37:34.809Z,4.63
2023-05-23T20:40:02.146Z,4.95
2023-05-23T20:42:31.104Z,4.50
2023-05-23T20:44:58.448Z,4.38
2023-05-23T20:47:25.817Z,4.28
2023-05-23T20:49:52.964Z,4.88
2023-05-23T20:52:19.824Z,4.68
2023-05-23T20:54:48.175Z,4.65
2023-05-23T20:57:15.136Z,5.05
2023-05-23T20:59:42.170Z,4.85
2023-05-23T21:02:09.330Z,4.47
2023-05-23T21:04:36.341Z,4.85
2023-05-23T21:07:03.435Z,4.65
2023-05-23T21:09:30.455Z,4.50
2023-05-23T21:12:08.589Z,4.53
2023-05-23T21:14:35.602Z,4.30
2023-05-23T21:17:03.399Z,5.00
2023-05-23T21:19:30.669Z,4.63
2023-05-23T21:21:57.889Z,4.35
2023-05-23T21:24:25.406Z,4.70
2023-05-23T21:26:52.686Z,4.85
2023-05-23T21:29:19.661Z,4.32
2023-05-23T21:31:46.828Z,4.97
2023-05-23T21:34:22.500Z,4.93
2023-05-23T21:36:52.023Z,5.10
2023-05-23T21:39:19.117Z,4.88
2023-05-23T21:41:46.287Z,5.15
2023-05-23T21:44:13.906Z,5.28
2023-05-23T21:46:41.030Z,5.53
2023-05-23T21:49:08.005Z,5.25
2023-05-23T21:51:34.895Z,4.60
2023-05-23T21:54:02.400Z,5.20
2023-05-23T21:56:29.607Z,5.38
2023-05-23T21:58:56.436Z,5.10
2023-05-23T22:01:23.579Z,5.65
2023-05-23T22:03:51.304Z,5.32
2023-05-23T22:06:18.640Z,4.95
2023-05-23T22:08:46.327Z,4.78
2023-05-23T22:11:13.552Z,4.72
2023-05-23T22:13:40.807Z,5.03
2023-05-23T22:16:08.034Z,4.80
2023-05-23T22:18:50.839Z,6.35
2023-05-23T22:21:19.058Z,5.93
2023-05-23T22:23:46.076Z,6.00
2023-05-23T22:26:13.053Z,6.18
2023-05-23T22:28:39.955Z,5.93
2023-05-23T22:31:07.174Z,5.80
2023-05-23T22:33:34.336Z,5.53
2023-05-23T22:36:01.359Z,5.10
2023-05-23T22:38:28.485Z,5.47
2023-05-23T22:40:55.446Z,5.07
2023-05-23T22:43:22.337Z,5.10
2023-05-23T22:45:50.312Z,5.10
2023-05-23T22:48:19.405Z,4.78
2023-05-23T22:50:46.882Z,4.82
2023-05-23T22:53:16.776Z,5.32
2023-05-23T22:55:43.819Z,5.60
2023-05-23T22:58:11.037Z,4.38
2023-05-23T23:00:38.045Z,4.50
2023-05-23T23:03:05.134Z,5.00
2023-05-23T23:05:32.169Z,4.65
2023-05-23T23:07:59.071Z,4.57
2023-05-23T23:10:26.023Z,4.13
2023-05-23T23:12:52.895Z,5.03
2023-05-23T23:15:20.193Z,5.15
2023-05-23T23:17:47.670Z,5.15
2023-05-23T23:20:14.991Z,4.13
2023-05-23T23:22:42.282Z,4.70
2023-05-23T23:25:10.796Z,5.05
2023-05-23T23:27:38.721Z,5.05
2023-05-23T23:30:06.732Z,4.55
2023-05-23T23:32:34.356Z,5.45
2023-05-23T23:35:01.836Z,5.25
2023-05-23T23:37:29.031Z,5.70
2023-05-23T23:39:56.172Z,5.15
2023-05-23T23:42:23.317Z,5.15
2023-05-23T23:44:50.276Z,5.60
2023-05-23T23:47:17.244Z,5.00
2023-05-23T23:49:44.146Z,5.40
2023-05-23T23:52:11.276Z,5.78
2023-05-23T23:54:38.336Z,5.07
2023-05-23T23:57:06.706Z,4.75
2023-05-23T23:59:33.719Z,5.05
